sensor_id;sensor_type;location;lat;lon;timestamp;pressure;altitude;pressure_sealevel;temperature;humidity
81243;BME280;70716;50.074;14.496;2023-12-20T00:02:22;98624.09;;;5.98;66.37
81243;BME280;70716;50.074;14.496;2023-12-20T00:04:48;98615.75;;;5.94;66.50
81243;BME280;70716;50.074;14.496;2023-12-20T00:07:13;98612.75;;;5.96;67.43
81243;BME280;70716;50.074;14.496;2023-12-20T00:09:39;98613.06;;;5.94;66.73
81243;BME280;70716;50.074;14.496;2023-12-20T00:12:05;98604.94;;;5.94;66.77
81243;BME280;70716;50.074;14.496;2023-12-20T00:14:30;98604.34;;;5.97;68.01
81243;BME280;70716;50.074;14.496;2023-12-20T00:16:55;98602.22;;;5.94;67.69
81243;BME280;70716;50.074;14.496;2023-12-20T00:19:21;98606.31;;;5.92;67.54
81243;BME280;70716;50.074;14.496;2023-12-20T00:21:46;98615.19;;;5.97;67.24
81243;BME280;70716;50.074;14.496;2023-12-20T00:24:12;98613.44;;;5.83;68.28
81243;BME280;70716;50.074;14.496;2023-12-20T00:26:37;98604.03;;;5.80;68.43
81243;BME280;70716;50.074;14.496;2023-12-20T00:29:03;98597.81;;;5.80;68.29
81243;BME280;70716;50.074;14.496;2023-12-20T00:31:28;98588.88;;;5.79;69.58
81243;BME280;70716;50.074;14.496;2023-12-20T00:33:53;98589.50;;;5.76;69.97
81243;BME280;70716;50.074;14.496;2023-12-20T00:36:19;98596.81;;;5.76;70.63
81243;BME280;70716;50.074;14.496;2023-12-20T00:38:45;98611.72;;;5.73;70.47
81243;BME280;70716;50.074;14.496;2023-12-20T00:41:12;98620.41;;;5.70;71.43
81243;BME280;70716;50.074;14.496;2023-12-20T00:43:37;98597.16;;;5.69;72.33
81243;BME280;70716;50.074;14.496;2023-12-20T00:46:03;98586.56;;;5.73;71.98
81243;BME280;70716;50.074;14.496;2023-12-20T00:48:28;98577.22;;;5.65;72.53
81243;BME280;70716;50.074;14.496;2023-12-20T00:50:55;98592.03;;;5.68;72.22
81243;BME280;70716;50.074;14.496;2023-12-20T00:53:20;98597.44;;;5.68;73.19
81243;BME280;70716;50.074;14.496;2023-12-20T00:55:46;98590.44;;;5.67;72.89
81243;BME280;70716;50.074;14.496;2023-12-20T00:58:11;98575.09;;;5.62;73.57
81243;BME280;70716;50.074;14.496;2023-12-20T01:00:40;98567.09;;;5.52;73.46
81243;BME280;70716;50.074;14.496;2023-12-20T01:03:06;98558.13;;;5.56;74.22
81243;BME280;70716;50.074;14.496;2023-12-20T01:05:32;98560.81;;;5.56;74.11
81243;BME280;70716;50.074;14.496;2023-12-20T01:07:57;98560.31;;;5.54;74.64
81243;BME280;70716;50.074;14.496;2023-12-20T01:10:22;98564.69;;;5.50;75.63
81243;BME280;70716;50.074;14.496;2023-12-20T01:12:51;98571.41;;;5.53;76.32
81243;BME280;70716;50.074;14.496;2023-12-20T01:15:16;98571.53;;;5.43;77.10
81243;BME280;70716;50.074;14.496;2023-12-20T01:17:42;98567.75;;;5.44;76.60
81243;BME280;70716;50.074;14.496;2023-12-20T01:20:09;98564.75;;;5.45;76.70
81243;BME280;70716;50.074;14.496;2023-12-20T01:22:35;98563.13;;;5.44;77.26
81243;BME280;70716;50.074;14.496;2023-12-20T01:25:02;98561.53;;;5.43;77.84
81243;BME280;70716;50.074;14.496;2023-12-20T01:27:28;98556.69;;;5.40;77.78
81243;BME280;70716;50.074;14.496;2023-12-20T01:29:54;98551.59;;;5.39;77.12
81243;BME280;70716;50.074;14.496;2023-12-20T01:32:19;98541.94;;;5.32;77.75
81243;BME280;70716;50.074;14.496;2023-12-20T01:34:44;98537.34;;;5.33;77.79
81243;BME280;70716;50.074;14.496;2023-12-20T01:37:10;98532.66;;;5.39;77.95
81243;BME280;70716;50.074;14.496;2023-12-20T01:39:35;98528.94;;;5.35;78.17
81243;BME280;70716;50.074;14.496;2023-12-20T01:42:01;98523.31;;;5.31;78.17
81243;BME280;70716;50.074;14.496;2023-12-20T01:44:27;98520.59;;;5.31;78.62
81243;BME280;70716;50.074;14.496;2023-12-20T01:46:52;98508.47;;;5.28;78.33
81243;BME280;70716;50.074;14.496;2023-12-20T01:49:18;98506.88;;;5.27;79.29
81243;BME280;70716;50.074;14.496;2023-12-20T01:51:44;98496.06;;;5.27;79.75
81243;BME280;70716;50.074;14.496;2023-12-20T01:54:10;98498.47;;;5.29;79.82
81243;BME280;70716;50.074;14.496;2023-12-20T01:56:35;98492.84;;;5.25;80.37
81243;BME280;70716;50.074;14.496;2023-12-20T01:59:04;98502.84;;;5.25;80.63
81243;BME280;70716;50.074;14.496;2023-12-20T02:01:30;98489.91;;;5.22;80.99
81243;BME280;70716;50.074;14.496;2023-12-20T02:03:56;98497.03;;;5.18;81.17
81243;BME280;70716;50.074;14.496;2023-12-20T02:06:23;98497.31;;;5.16;81.25
81243;BME280;70716;50.074;14.496;2023-12-20T02:08:50;98500.81;;;5.17;80.81
81243;BME280;70716;50.074;14.496;2023-12-20T02:11:16;98490.59;;;5.14;81.45
81243;BME280;70716;50.074;14.496;2023-12-20T02:13:44;98496.28;;;5.12;81.26
81243;BME280;70716;50.074;14.496;2023-12-20T02:16:09;98498.28;;;5.02;82.39
81243;BME280;70716;50.074;14.496;2023-12-20T02:18:35;98495.59;;;5.02;82.31
81243;BME280;70716;50.074;14.496;2023-12-20T02:21:00;98491.00;;;5.02;82.44
81243;BME280;70716;50.074;14.496;2023-12-20T02:23:26;98494.50;;;5.03;82.51
81243;BME280;70716;50.074;14.496;2023-12-20T02:25:51;98491.28;;;5.01;82.52
81243;BME280;70716;50.074;14.496;2023-12-20T02:28:17;98494.50;;;5.03;83.00
81243;BME280;70716;50.074;14.496;2023-12-20T02:30:42;98490.13;;;5.07;81.90
81243;BME280;70716;50.074;14.496;2023-12-20T02:33:12;98496.41;;;5.02;82.93
81243;BME280;70716;50.074;14.496;2023-12-20T02:35:37;98493.94;;;5.06;82.85
81243;BME280;70716;50.074;14.496;2023-12-20T02:38:03;98481.53;;;5.05;81.64
81243;BME280;70716;50.074;14.496;2023-12-20T02:40:28;98482.09;;;5.02;82.44
81243;BME280;70716;50.074;14.496;2023-12-20T02:42:54;98487.03;;;4.94;82.76
81243;BME280;70716;50.074;14.496;2023-12-20T02:45:19;98483.25;;;4.95;82.99
81243;BME280;70716;50.074;14.496;2023-12-20T02:47:44;98487.56;;;4.96;82.91
81243;BME280;70716;50.074;14.496;2023-12-20T02:50:13;98486.97;;;5.00;83.65
81243;BME280;70716;50.074;14.496;2023-12-20T02:52:44;98479.00;;;4.89;83.71
81243;BME280;70716;50.074;14.496;2023-12-20T02:55:09;98483.31;;;4.90;84.08
81243;BME280;70716;50.074;14.496;2023-12-20T02:57:35;98485.44;;;4.93;84.21
81243;BME280;70716;50.074;14.496;2023-12-20T03:00:05;98480.53;;;4.95;84.39
81243;BME280;70716;50.074;14.496;2023-12-20T03:02:33;98483.25;;;4.95;84.21
81243;BME280;70716;50.074;14.496;2023-12-20T03:04:58;98481.41;;;4.91;84.04
81243;BME280;70716;50.074;14.496;2023-12-20T03:07:25;98478.19;;;4.89;84.75
81243;BME280;70716;50.074;14.496;2023-12-20T03:09:50;98483.03;;;4.92;84.94
81243;BME280;70716;50.074;14.496;2023-12-20T03:12:19;98489.22;;;4.92;85.40
81243;BME280;70716;50.074;14.496;2023-12-20T03:14:44;98480.84;;;4.94;84.71
81243;BME280;70716;50.074;14.496;2023-12-20T03:17:12;98475.53;;;4.84;85.45
81243;BME280;70716;50.074;14.496;2023-12-20T03:19:37;98480.16;;;4.83;85.12
81243;BME280;70716;50.074;14.496;2023-12-20T03:22:03;98474.28;;;4.76;86.05
81243;BME280;70716;50.074;14.496;2023-12-20T03:24:28;98475.66;;;4.74;86.59
81243;BME280;70716;50.074;14.496;2023-12-20T03:26:53;98468.88;;;4.76;86.20
81243;BME280;70716;50.074;14.496;2023-12-20T03:29:19;98477.50;;;4.78;86.15
81243;BME280;70716;50.074;14.496;2023-12-20T03:31:45;98475.66;;;4.74;86.26
81243;BME280;70716;50.074;14.496;2023-12-20T03:34:11;98465.94;;;4.73;86.30
81243;BME280;70716;50.074;14.496;2023-12-20T03:36:37;98474.50;;;4.80;86.78
81243;BME280;70716;50.074;14.496;2023-12-20T03:39:02;98468.53;;;4.83;86.59
81243;BME280;70716;50.074;14.496;2023-12-20T03:41:28;98466.41;;;4.80;86.22
81243;BME280;70716;50.074;14.496;2023-12-20T03:43:54;98465.31;;;4.81;86.30
81243;BME280;70716;50.074;14.496;2023-12-20T03:46:19;98475.59;;;4.79;86.53
81243;BME280;70716;50.074;14.496;2023-12-20T03:48:45;98471.00;;;4.79;86.99
81243;BME280;70716;50.074;14.496;2023-12-20T03:51:10;98472.09;;;4.78;87.09
81243;BME280;70716;50.074;14.496;2023-12-20T03:53:36;98458.88;;;4.77;86.05
81243;BME280;70716;50.074;14.496;2023-12-20T03:56:01;98469.91;;;4.80;86.88
81243;BME280;70716;50.074;14.496;2023-12-20T03:58:26;98474.28;;;4.76;86.87
81243;BME280;70716;50.074;14.496;2023-12-20T04:00:52;98466.41;;;4.80;86.44
81243;BME280;70716;50.074;14.496;2023-12-20T04:03:18;98473.19;;;4.77;86.56
81243;BME280;70716;50.074;14.496;2023-12-20T04:05:43;98475.88;;;4.77;86.00
81243;BME280;70716;50.074;14.496;2023-12-20T04:08:09;98467.34;;;4.70;86.75
81243;BME280;70716;50.074;14.496;2023-12-20T04:10:38;98452.75;;;4.71;86.90
81243;BME280;70716;50.074;14.496;2023-12-20T04:13:04;98463.78;;;4.75;86.88
81243;BME280;70716;50.074;14.496;2023-12-20T04:15:29;98470.50;;;4.77;87.16
81243;BME280;70716;50.074;14.496;2023-12-20T04:17:54;98464.34;;;4.72;87.00
81243;BME280;70716;50.074;14.496;2023-12-20T04:20:20;98467.34;;;4.70;87.13
81243;BME280;70716;50.074;14.496;2023-12-20T04:22:45;98474.06;;;4.73;86.93
81243;BME280;70716;50.074;14.496;2023-12-20T04:25:11;98465.50;;;4.65;87.28
81243;BME280;70716;50.074;14.496;2023-12-20T04:27:36;98471.41;;;4.68;87.24
81243;BME280;70716;50.074;14.496;2023-12-20T04:30:02;98469.78;;;4.67;87.57
81243;BME280;70716;50.074;14.496;2023-12-20T04:32:29;98475.47;;;4.65;87.14
81243;BME280;70716;50.074;14.496;2023-12-20T04:34:54;98477.16;;;4.61;87.56
81243;BME280;70716;50.074;14.496;2023-12-20T04:37:19;98476.56;;;4.64;86.83
81243;BME280;70716;50.074;14.496;2023-12-20T04:39:45;98478.47;;;4.63;87.06
81243;BME280;70716;50.074;14.496;2023-12-20T04:42:10;98479.88;;;4.61;87.26
81243;BME280;70716;50.074;14.496;2023-12-20T04:44:39;98473.88;;;4.64;87.05
81243;BME280;70716;50.074;14.496;2023-12-20T04:47:04;98476.97;;;4.76;87.86
81243;BME280;70716;50.074;14.496;2023-12-20T04:49:29;98479.91;;;4.80;86.92
81243;BME280;70716;50.074;14.496;2023-12-20T04:51:55;98480.81;;;4.70;86.59
81243;BME280;70716;50.074;14.496;2023-12-20T04:54:26;98482.59;;;4.80;86.13
81243;BME280;70716;50.074;14.496;2023-12-20T04:56:52;98480.47;;;4.77;86.38
81243;BME280;70716;50.074;14.496;2023-12-20T04:59:17;98475.13;;;4.72;86.75
81243;BME280;70716;50.074;14.496;2023-12-20T05:01:42;98468.41;;;4.69;86.92
81243;BME280;70716;50.074;14.496;2023-12-20T05:04:08;98475.38;;;4.75;86.31
81243;BME280;70716;50.074;14.496;2023-12-20T05:06:33;98477.59;;;4.68;86.91
81243;BME280;70716;50.074;14.496;2023-12-20T05:08:58;98472.78;;;4.65;86.92
81243;BME280;70716;50.074;14.496;2023-12-20T05:11:24;98483.06;;;4.63;86.99
81243;BME280;70716;50.074;14.496;2023-12-20T05:13:49;98478.78;;;4.62;87.12
81243;BME280;70716;50.074;14.496;2023-12-20T05:16:15;98474.16;;;4.62;87.27
81243;BME280;70716;50.074;14.496;2023-12-20T05:18:43;98483.06;;;4.63;86.77
81243;BME280;70716;50.074;14.496;2023-12-20T05:21:08;98483.28;;;4.67;86.47
81243;BME280;70716;50.074;14.496;2023-12-20T05:23:33;98483.56;;;4.65;87.06
81243;BME280;70716;50.074;14.496;2023-12-20T05:25:59;98490.66;;;4.61;86.94
81243;BME280;70716;50.074;14.496;2023-12-20T05:28:24;98490.16;;;4.59;86.63
81243;BME280;70716;50.074;14.496;2023-12-20T05:30:50;98487.25;;;4.50;86.61
81243;BME280;70716;50.074;14.496;2023-12-20T05:33:16;98495.66;;;4.49;86.78
81243;BME280;70716;50.074;14.496;2023-12-20T05:35:44;98492.94;;;4.49;87.11
81243;BME280;70716;50.074;14.496;2023-12-20T05:38:10;98499.81;;;4.36;87.65
81243;BME280;70716;50.074;14.496;2023-12-20T05:40:35;98503.06;;;4.33;87.60
81243;BME280;70716;50.074;14.496;2023-12-20T05:43:00;98509.78;;;4.36;88.21
81243;BME280;70716;50.074;14.496;2023-12-20T05:45:26;98499.28;;;4.34;87.73
81243;BME280;70716;50.074;14.496;2023-12-20T05:47:51;98504.97;;;4.32;87.46
81243;BME280;70716;50.074;14.496;2023-12-20T05:50:17;98502.47;;;4.41;87.28
81243;BME280;70716;50.074;14.496;2023-12-20T05:52:45;98504.06;;;4.42;87.28
81243;BME280;70716;50.074;14.496;2023-12-20T05:55:10;98507.06;;;4.41;86.73
81243;BME280;70716;50.074;14.496;2023-12-20T05:57:36;98503.03;;;4.38;86.82
81243;BME280;70716;50.074;14.496;2023-12-20T06:00:01;98501.41;;;4.37;87.34
81243;BME280;70716;50.074;14.496;2023-12-20T06:02:27;98499.28;;;4.34;87.55
81243;BME280;70716;50.074;14.496;2023-12-20T06:04:52;98501.19;;;4.34;86.75
81243;BME280;70716;50.074;14.496;2023-12-20T06:07:17;98493.38;;;4.32;87.19
81243;BME280;70716;50.074;14.496;2023-12-20T06:09:43;98502.50;;;4.36;87.28
81243;BME280;70716;50.074;14.496;2023-12-20T06:12:08;98503.63;;;4.30;86.72
81243;BME280;70716;50.074;14.496;2023-12-20T06:14:34;98507.41;;;4.29;87.01
81243;BME280;70716;50.074;14.496;2023-12-20T06:17:03;98517.94;;;4.30;86.96
81243;BME280;70716;50.074;14.496;2023-12-20T06:19:29;98518.81;;;4.21;87.36
81243;BME280;70716;50.074;14.496;2023-12-20T06:21:54;98522.56;;;4.25;87.42
81243;BME280;70716;50.074;14.496;2023-12-20T06:24:20;98517.69;;;4.27;87.57
81243;BME280;70716;50.074;14.496;2023-12-20T06:26:49;98525.22;;;4.30;87.58
81243;BME280;70716;50.074;14.496;2023-12-20T06:29:18;98521.47;;;4.26;87.51
81243;BME280;70716;50.074;14.496;2023-12-20T06:31:43;98521.47;;;4.26;87.38
81243;BME280;70716;50.074;14.496;2023-12-20T06:34:09;98520.66;;;4.25;87.03
81243;BME280;70716;50.074;14.496;2023-12-20T06:36:35;98524.44;;;4.24;87.76
81243;BME280;70716;50.074;14.496;2023-12-20T06:39:01;98522.84;;;4.23;88.18
81243;BME280;70716;50.074;14.496;2023-12-20T06:41:26;98525.53;;;4.23;87.43
81243;BME280;70716;50.074;14.496;2023-12-20T06:43:53;98526.38;;;4.19;87.79
81243;BME280;70716;50.074;14.496;2023-12-20T06:46:19;98540.19;;;4.12;87.17
81243;BME280;70716;50.074;14.496;2023-12-20T06:48:44;98536.13;;;4.15;87.65
81243;BME280;70716;50.074;14.496;2023-12-20T06:51:14;98538.22;;;4.23;86.96
81243;BME280;70716;50.074;14.496;2023-12-20T06:53:40;98543.72;;;4.08;87.61
81243;BME280;70716;50.074;14.496;2023-12-20T06:56:06;98548.56;;;4.11;88.01
81243;BME280;70716;50.074;14.496;2023-12-20T06:58:32;98555.28;;;4.13;87.26
81243;BME280;70716;50.074;14.496;2023-12-20T07:00:58;98559.03;;;4.17;87.54
81243;BME280;70716;50.074;14.496;2023-12-20T07:03:23;98566.84;;;4.19;87.56
81243;BME280;70716;50.074;14.496;2023-12-20T07:05:49;98564.16;;;4.19;87.59
81243;BME280;70716;50.074;14.496;2023-12-20T07:08:15;98565.19;;;4.23;86.84
81243;BME280;70716;50.074;14.496;2023-12-20T07:10:41;98581.66;;;4.21;87.46
81243;BME280;70716;50.074;14.496;2023-12-20T07:13:06;98577.34;;;4.20;87.24
81243;BME280;70716;50.074;14.496;2023-12-20T07:15:33;98581.66;;;4.21;87.59
81243;BME280;70716;50.074;14.496;2023-12-20T07:18:01;98588.09;;;4.25;86.90
81243;BME280;70716;50.074;14.496;2023-12-20T07:20:27;98598.56;;;4.32;86.81
81243;BME280;70716;50.074;14.496;2023-12-20T07:22:52;98581.34;;;4.28;86.63
81243;BME280;70716;50.074;14.496;2023-12-20T07:25:17;98599.91;;;4.35;86.27
81243;BME280;70716;50.074;14.496;2023-12-20T07:27:43;98591.81;;;4.35;86.48
81243;BME280;70716;50.074;14.496;2023-12-20T07:30:09;98594.22;;;4.36;86.67
81243;BME280;70716;50.074;14.496;2023-12-20T07:32:34;98599.88;;;4.40;86.59
81243;BME280;70716;50.074;14.496;2023-12-20T07:35:00;98602.59;;;4.35;86.86
81243;BME280;70716;50.074;14.496;2023-12-20T07:37:25;98598.56;;;4.32;87.77
81243;BME280;70716;50.074;14.496;2023-12-20T07:39:51;98606.63;;;4.37;86.67
81243;BME280;70716;50.074;14.496;2023-12-20T07:42:16;98610.69;;;4.35;86.67
81243;BME280;70716;50.074;14.496;2023-12-20T07:44:45;98608.56;;;4.31;87.44
81243;BME280;70716;50.074;14.496;2023-12-20T07:47:10;98617.75;;;4.30;87.41
81243;BME280;70716;50.074;14.496;2023-12-20T07:49:40;98612.06;;;4.32;88.23
81243;BME280;70716;50.074;14.496;2023-12-20T07:52:06;98613.44;;;4.29;87.40
81243;BME280;70716;50.074;14.496;2023-12-20T07:54:31;98616.91;;;4.35;87.29
81243;BME280;70716;50.074;14.496;2023-12-20T07:56:59;98627.16;;;4.33;87.43
81243;BME280;70716;50.074;14.496;2023-12-20T07:59:25;98626.59;;;4.36;87.78
81243;BME280;70716;50.074;14.496;2023-12-20T08:01:50;98629.63;;;4.29;86.81
81243;BME280;70716;50.074;14.496;2023-12-20T08:04:16;98617.72;;;4.36;86.58
81243;BME280;70716;50.074;14.496;2023-12-20T08:06:44;98616.88;;;4.40;86.88
81243;BME280;70716;50.074;14.496;2023-12-20T08:09:09;98614.94;;;4.46;86.23
81243;BME280;70716;50.074;14.496;2023-12-20T08:11:35;98606.03;;;4.45;86.43
81243;BME280;70716;50.074;14.496;2023-12-20T08:14:00;98614.97;;;4.41;85.91
81243;BME280;70716;50.074;14.496;2023-12-20T08:16:26;98605.75;;;4.47;85.58
81243;BME280;70716;50.074;14.496;2023-12-20T08:18:51;98613.28;;;4.50;85.93
81243;BME280;70716;50.074;14.496;2023-12-20T08:21:17;98623.00;;;4.51;84.76
81243;BME280;70716;50.074;14.496;2023-12-20T08:23:46;98621.38;;;4.50;85.98
81243;BME280;70716;50.074;14.496;2023-12-20T08:26:22;98615.50;;;4.43;85.46
81243;BME280;70716;50.074;14.496;2023-12-20T08:28:48;98623.28;;;4.49;85.23
81243;BME280;70716;50.074;14.496;2023-12-20T08:31:17;98631.09;;;4.51;85.55
81243;BME280;70716;50.074;14.496;2023-12-20T08:33:44;98625.97;;;4.49;85.22
81243;BME280;70716;50.074;14.496;2023-12-20T08:36:10;98634.91;;;4.45;85.14
81243;BME280;70716;50.074;14.496;2023-12-20T08:38:36;98639.19;;;4.51;85.24
81243;BME280;70716;50.074;14.496;2023-12-20T08:41:01;98638.63;;;4.54;85.35
81243;BME280;70716;50.074;14.496;2023-12-20T08:43:36;98632.38;;;4.58;84.61
81243;BME280;70716;50.074;14.496;2023-12-20T08:46:01;98627.03;;;4.53;85.08
81243;BME280;70716;50.074;14.496;2023-12-20T08:48:28;98628.44;;;4.46;85.70
81243;BME280;70716;50.074;14.496;2023-12-20T08:50:53;98636.47;;;4.51;85.05
81243;BME280;70716;50.074;14.496;2023-12-20T08:53:20;98636.75;;;4.49;84.43
81243;BME280;70716;50.074;14.496;2023-12-20T08:55:46;98642.69;;;4.51;85.17
81243;BME280;70716;50.074;14.496;2023-12-20T08:58:15;98627.09;;;4.43;84.95
81243;BME280;70716;50.074;14.496;2023-12-20T09:00:40;98615.00;;;4.36;84.77
81243;BME280;70716;50.074;14.496;2023-12-20T09:03:05;98632.25;;;4.40;85.78
81243;BME280;70716;50.074;14.496;2023-12-20T09:05:31;98632.50;;;4.43;85.38
81243;BME280;70716;50.074;14.496;2023-12-20T09:07:56;98640.00;;;4.51;84.98
81243;BME280;70716;50.074;14.496;2023-12-20T09:10:22;98638.06;;;4.57;85.39
81243;BME280;70716;50.074;14.496;2023-12-20T09:12:49;98630.66;;;4.68;84.19
81243;BME280;70716;50.074;14.496;2023-12-20T09:15:14;98629.13;;;4.61;83.67
81243;BME280;70716;50.074;14.496;2023-12-20T09:17:43;98637.44;;;4.65;84.23
81243;BME280;70716;50.074;14.496;2023-12-20T09:20:09;98633.59;;;4.71;83.79
81243;BME280;70716;50.074;14.496;2023-12-20T09:22:36;98640.25;;;4.84;84.15
81243;BME280;70716;50.074;14.496;2023-12-20T09:25:04;98624.28;;;4.87;82.44
81243;BME280;70716;50.074;14.496;2023-12-20T09:27:32;98629.16;;;4.85;83.46
81243;BME280;70716;50.074;14.496;2023-12-20T09:29:57;98638.88;;;4.86;83.36
81243;BME280;70716;50.074;14.496;2023-12-20T09:32:23;98633.50;;;4.81;83.62
81243;BME280;70716;50.074;14.496;2023-12-20T09:34:48;98626.41;;;4.90;83.27
81243;BME280;70716;50.074;14.496;2023-12-20T09:37:14;98641.84;;;5.14;82.98
81243;BME280;70716;50.074;14.496;2023-12-20T09:39:42;98635.81;;;5.22;82.98
81243;BME280;70716;50.074;14.496;2023-12-20T09:42:11;98637.31;;;5.33;82.32
81243;BME280;70716;50.074;14.496;2023-12-20T09:44:37;98638.56;;;5.41;81.31
81243;BME280;70716;50.074;14.496;2023-12-20T09:47:06;98635.41;;;5.34;80.80
81243;BME280;70716;50.074;14.496;2023-12-20T09:49:32;98635.00;;;5.21;82.22
81243;BME280;70716;50.074;14.496;2023-12-20T09:52:00;98629.94;;;5.39;81.56
81243;BME280;70716;50.074;14.496;2023-12-20T09:54:26;98623.63;;;5.24;81.73
81243;BME280;70716;50.074;14.496;2023-12-20T09:56:54;98627.41;;;5.23;82.00
81243;BME280;70716;50.074;14.496;2023-12-20T09:59:19;98637.69;;;5.21;81.85
81243;BME280;70716;50.074;14.496;2023-12-20T10:01:45;98630.63;;;5.25;81.95
81243;BME280;70716;50.074;14.496;2023-12-20T10:04:12;98628.16;;;5.29;81.47
81243;BME280;70716;50.074;14.496;2023-12-20T10:06:38;98632.72;;;5.34;81.26
81243;BME280;70716;50.074;14.496;2023-12-20T10:09:07;98632.03;;;5.47;81.81
81243;BME280;70716;50.074;14.496;2023-12-20T10:11:35;98628.91;;;5.58;80.59
81243;BME280;70716;50.074;14.496;2023-12-20T10:14:00;98626.59;;;5.71;79.65
81243;BME280;70716;50.074;14.496;2023-12-20T10:16:26;98624.78;;;5.85;79.53
81243;BME280;70716;50.074;14.496;2023-12-20T10:18:57;98614.19;;;5.88;78.83
81243;BME280;70716;50.074;14.496;2023-12-20T10:21:23;98615.53;;;5.91;78.43
81243;BME280;70716;50.074;14.496;2023-12-20T10:23:52;98619.94;;;6.06;78.56
81243;BME280;70716;50.074;14.496;2023-12-20T10:26:22;98614.59;;;6.01;79.64
81243;BME280;70716;50.074;14.496;2023-12-20T10:28:54;98613.28;;;5.98;79.34
81243;BME280;70716;50.074;14.496;2023-12-20T10:31:30;98621.09;;;6.00;78.92
81243;BME280;70716;50.074;14.496;2023-12-20T10:33:57;98605.34;;;5.83;79.28
81243;BME280;70716;50.074;14.496;2023-12-20T10:36:23;98616.28;;;5.96;78.76
81243;BME280;70716;50.074;14.496;2023-12-20T10:38:50;98607.28;;;6.01;77.96
81243;BME280;70716;50.074;14.496;2023-12-20T10:41:21;98599.03;;;5.92;78.25
81243;BME280;70716;50.074;14.496;2023-12-20T10:43:49;98601.75;;;5.87;77.14
81243;BME280;70716;50.074;14.496;2023-12-20T10:46:19;98591.69;;;5.74;78.62
81243;BME280;70716;50.074;14.496;2023-12-20T10:48:45;98596.19;;;5.79;78.15
81243;BME280;70716;50.074;14.496;2023-12-20T10:51:14;98580.41;;;5.86;77.61
81243;BME280;70716;50.074;14.496;2023-12-20T10:53:47;98599.53;;;6.13;77.63
81243;BME280;70716;50.074;14.496;2023-12-20T10:56:16;98587.25;;;6.21;76.43
81243;BME280;70716;50.074;14.496;2023-12-20T10:58:43;98586.63;;;6.43;75.60
81243;BME280;70716;50.074;14.496;2023-12-20T11:01:12;98584.75;;;6.57;74.98
81243;BME280;70716;50.074;14.496;2023-12-20T11:03:47;98581.16;;;6.61;75.51
81243;BME280;70716;50.074;14.496;2023-12-20T11:08:50;98581.53;;;6.87;75.20
81243;BME280;70716;50.074;14.496;2023-12-20T11:11:34;98571.41;;;6.93;74.62
81243;BME280;70716;50.074;14.496;2023-12-20T11:14:04;98571.63;;;7.10;73.88
81243;BME280;70716;50.074;14.496;2023-12-20T11:16:32;98561.19;;;7.17;73.55
81243;BME280;70716;50.074;14.496;2023-12-20T11:19:04;98567.69;;;7.03;73.18
81243;BME280;70716;50.074;14.496;2023-12-20T11:21:30;98564.97;;;7.03;73.54
81243;BME280;70716;50.074;14.496;2023-12-20T11:23:55;98568.59;;;6.98;74.23
81243;BME280;70716;50.074;14.496;2023-12-20T11:26:27;98572.69;;;6.95;73.96
81243;BME280;70716;50.074;14.496;2023-12-20T11:28:54;98557.06;;;7.06;73.38
81243;BME280;70716;50.074;14.496;2023-12-20T11:31:41;98551.44;;;7.16;72.86
81243;BME280;70716;50.074;14.496;2023-12-20T11:34:13;98554.75;;;7.13;73.80
81243;BME280;70716;50.074;14.496;2023-12-20T11:36:41;98549.84;;;7.15;73.50
81243;BME280;70716;50.074;14.496;2023-12-20T11:39:07;98554.56;;;7.10;74.08
81243;BME280;70716;50.074;14.496;2023-12-20T11:41:34;98552.34;;;7.12;73.79
81243;BME280;70716;50.074;14.496;2023-12-20T11:44:00;98546.13;;;7.11;73.48
81243;BME280;70716;50.074;14.496;2023-12-20T11:46:26;98547.03;;;7.07;71.78
81243;BME280;70716;50.074;14.496;2023-12-20T11:48:54;98539.00;;;7.15;73.14
81243;BME280;70716;50.074;14.496;2023-12-20T11:51:19;98542.31;;;7.12;72.21
81243;BME280;70716;50.074;14.496;2023-12-20T11:53:44;98533.97;;;6.81;71.45
81243;BME280;70716;50.074;14.496;2023-12-20T11:56:13;98550.88;;;6.59;71.58
81243;BME280;70716;50.074;14.496;2023-12-20T11:58:39;98548.78;;;6.56;71.71
81243;BME280;70716;50.074;14.496;2023-12-20T12:01:05;98543.41;;;6.38;71.87
81243;BME280;70716;50.074;14.496;2023-12-20T12:03:32;98528.22;;;6.23;73.02
81243;BME280;70716;50.074;14.496;2023-12-20T12:05:58;98527.16;;;6.05;74.27
81243;BME280;70716;50.074;14.496;2023-12-20T12:08:23;98525.69;;;5.94;74.86
81243;BME280;70716;50.074;14.496;2023-12-20T12:10:49;98525.19;;;5.92;74.64
81243;BME280;70716;50.074;14.496;2023-12-20T12:13:14;98529.91;;;5.81;75.37
81243;BME280;70716;50.074;14.496;2023-12-20T12:15:40;98540.50;;;5.78;76.29
81243;BME280;70716;50.074;14.496;2023-12-20T12:18:07;98523.88;;;5.71;75.64
81243;BME280;70716;50.074;14.496;2023-12-20T12:20:33;98525.84;;;5.65;75.98
81243;BME280;70716;50.074;14.496;2023-12-20T12:25:25;98515.75;;;5.71;74.39
81243;BME280;70716;50.074;14.496;2023-12-20T12:27:51;98532.19;;;5.74;73.83
81243;BME280;70716;50.074;14.496;2023-12-20T12:30:16;98518.97;;;5.73;73.63
81243;BME280;70716;50.074;14.496;2023-12-20T12:32:46;98520.06;;;5.72;73.59
81243;BME280;70716;50.074;14.496;2023-12-20T12:35:11;98513.34;;;5.69;72.09
81243;BME280;70716;50.074;14.496;2023-12-20T12:37:38;98504.94;;;5.71;71.72
81243;BME280;70716;50.074;14.496;2023-12-20T12:40:10;98500.94;;;5.68;72.56
81243;BME280;70716;50.074;14.496;2023-12-20T12:42:36;98509.19;;;5.77;71.18
81243;BME280;70716;50.074;14.496;2023-12-20T12:45:02;98498.25;;;5.82;71.29
81243;BME280;70716;50.074;14.496;2023-12-20T12:47:29;98496.53;;;5.91;70.68
81243;BME280;70716;50.074;14.496;2023-12-20T12:49:54;98492.00;;;6.05;70.52
81243;BME280;70716;50.074;14.496;2023-12-20T12:52:20;98496.47;;;6.28;69.88
81243;BME280;70716;50.074;14.496;2023-12-20T12:54:45;98493.19;;;6.45;68.61
81243;BME280;70716;50.074;14.496;2023-12-20T12:57:16;98489.22;;;6.70;67.27
81243;BME280;70716;50.074;14.496;2023-12-20T12:59:43;98491.94;;;6.84;66.97
81243;BME280;70716;50.074;14.496;2023-12-20T13:02:13;98495.06;;;6.91;67.33